Time;durP1;ratioP1;P1;durP2;ratioP2;P2;SDS_P1;SDS_P2;PMS_P1;PMS_P2;Temp;Humidity;BMP_temperature;BMP_pressure;BME280_temperature;BME280_humidity;BME280_pressure;Samples;Min_cycle;Max_cycle;Signal;HPM_P1;HPM_P2
2022/11/30 00:01:52;;;;;;;51.92;24.17;;;5.40;99.90;;;;;;5055317;28;20296;-58
2022/11/30 00:04:20;;;;;;;59.10;26.52;;;5.40;99.90;;;;;;5056261;28;20228;-58
2022/11/30 00:06:47;;;;;;;52.47;25.58;;;5.40;99.90;;;;;;5057069;28;20208;-57
2022/11/30 00:09:13;;;;;;;47.65;24.33;;;5.40;99.90;;;;;;5056501;28;20201;-58
2022/11/30 00:11:40;;;;;;;47.10;23.75;;;5.40;99.90;;;;;;5054613;28;20282;-58
2022/11/30 00:14:07;;;;;;;58.05;26.05;;;5.40;99.90;;;;;;5053940;28;20233;-58
2022/11/30 00:16:34;;;;;;;54.13;26.20;;;5.40;99.90;;;;;;5055984;28;20201;-57
2022/11/30 00:19:01;;;;;;;50.97;25.70;;;5.40;99.90;;;;;;5054152;28;20217;-57
2022/11/30 00:21:29;;;;;;;51.45;25.27;;;5.40;99.90;;;;;;5054713;28;20205;-57
2022/11/30 00:23:56;;;;;;;54.40;24.80;;;5.40;99.90;;;;;;5055344;28;20689;-57
2022/11/30 00:26:22;;;;;;;49.60;26.13;;;5.40;99.90;;;;;;5056662;28;20212;-57
2022/11/30 00:28:49;;;;;;;47.83;24.17;;;5.50;99.90;;;;;;5057854;28;20570;-57
2022/11/30 00:31:18;;;;;;;51.28;23.95;;;5.40;99.90;;;;;;5057610;28;20197;-58
2022/11/30 00:33:45;;;;;;;49.78;23.15;;;5.40;99.90;;;;;;5057257;28;20248;-58
2022/11/30 00:36:14;;;;;;;50.85;22.10;;;5.40;99.90;;;;;;5057342;28;20228;-57
2022/11/30 00:38:42;;;;;;;46.65;23.30;;;5.40;99.90;;;;;;5057866;28;20687;-57
2022/11/30 00:41:09;;;;;;;44.28;24.00;;;5.40;99.90;;;;;;5057751;28;20205;-57
2022/11/30 00:43:36;;;;;;;48.33;24.02;;;5.40;99.90;;;;;;5058110;28;20218;-58
2022/11/30 00:46:03;;;;;;;44.15;22.48;;;5.40;99.90;;;;;;5057635;28;20596;-56
2022/11/30 00:48:30;;;;;;;53.13;25.67;;;5.40;99.90;;;;;;5058061;28;20202;-58
2022/11/30 00:50:56;;;;;;;37.25;23.23;;;5.40;99.90;;;;;;5057660;28;20202;-57
2022/11/30 00:53:23;;;;;;;48.58;25.35;;;5.40;99.90;;;;;;5058992;28;20225;-58
2022/11/30 00:55:51;;;;;;;43.97;22.55;;;5.40;99.90;;;;;;5059279;28;20222;-58
2022/11/30 00:58:18;;;;;;;44.95;22.98;;;5.40;99.90;;;;;;5058569;28;20202;-57
2022/11/30 01:00:45;;;;;;;51.25;25.17;;;5.40;99.90;;;;;;5058636;28;20677;-57
2022/11/30 01:03:12;;;;;;;47.53;22.90;;;5.40;99.90;;;;;;5058793;28;20313;-57
2022/11/30 01:05:40;;;;;;;41.53;20.15;;;5.40;99.90;;;;;;5057800;28;20205;-57
2022/11/30 01:08:08;;;;;;;41.58;19.70;;;5.40;99.90;;;;;;5056780;28;20205;-57
2022/11/30 01:10:36;;;;;;;42.75;22.83;;;5.40;99.90;;;;;;5057078;28;20202;-56
2022/11/30 01:13:05;;;;;;;45.10;23.70;;;5.40;99.90;;;;;;5056847;28;20225;-57
2022/11/30 01:15:35;;;;;;;49.55;24.48;;;5.40;99.90;;;;;;5056716;28;20588;-59
2022/11/30 01:18:02;;;;;;;39.35;20.75;;;5.40;99.90;;;;;;5057417;28;20193;-58
2022/11/30 01:20:28;;;;;;;45.42;21.60;;;5.40;99.90;;;;;;5056672;28;20205;-57
2022/11/30 01:22:56;;;;;;;48.17;21.90;;;5.40;99.90;;;;;;5056076;28;20233;-57
2022/11/30 01:25:23;;;;;;;42.03;22.73;;;5.40;99.90;;;;;;5056137;28;20201;-56
2022/11/30 01:27:50;;;;;;;43.13;21.60;;;5.40;99.90;;;;;;5056432;28;20202;-57
2022/11/30 01:30:19;;;;;;;44.33;21.52;;;5.40;99.90;;;;;;5056426;28;20212;-57
2022/11/30 01:32:45;;;;;;;43.78;21.33;;;5.40;99.90;;;;;;5056095;28;20244;-58
2022/11/30 01:35:13;;;;;;;42.67;21.90;;;5.40;99.90;;;;;;5056210;28;20229;-58
2022/11/30 01:37:40;;;;;;;44.17;22.88;;;5.40;99.90;;;;;;5055544;28;20251;-59
2022/11/30 01:40:08;;;;;;;49.35;22.92;;;5.40;99.90;;;;;;5056279;28;20273;-58
2022/11/30 01:42:36;;;;;;;43.63;22.88;;;5.30;99.90;;;;;;5055837;28;20233;-58
2022/11/30 01:45:06;;;;;;;43.67;22.20;;;5.30;99.90;;;;;;5055953;28;20205;-57
2022/11/30 01:47:38;;;;;;;44.70;20.60;;;5.30;99.90;;;;;;5056016;28;20201;-58
2022/11/30 01:50:09;;;;;;;43.03;21.95;;;5.30;99.90;;;;;;5056046;28;20190;-58
2022/11/30 01:52:38;;;;;;;42.28;21.70;;;5.30;99.90;;;;;;5055617;28;20229;-57
2022/11/30 01:55:16;;;;;;;48.78;22.77;;;5.30;99.90;;;;;;5055648;28;20221;-57
2022/11/30 01:57:47;;;;;;;51.40;21.98;;;5.30;99.90;;;;;;5055867;28;20185;-57
2022/11/30 02:00:15;;;;;;;46.10;20.95;;;5.30;99.90;;;;;;5055981;28;20194;-56
2022/11/30 02:02:58;;;;;;;41.42;20.60;;;5.30;99.90;;;;;;5055565;28;20225;-57
2022/11/30 02:05:25;;;;;;;44.03;20.20;;;5.20;99.90;;;;;;5055487;28;20182;-57
2022/11/30 02:07:53;;;;;;;44.88;22.13;;;5.20;99.90;;;;;;5055752;28;20225;-57
2022/11/30 02:10:25;;;;;;;44.42;20.65;;;5.20;99.90;;;;;;5062997;28;20781;-57
2022/11/30 02:13:23;;;;;;;41.30;21.05;;;5.20;99.90;;;;;;5055056;28;20736;-58
2022/11/30 02:16:00;;;;;;;42.30;20.20;;;5.20;99.90;;;;;;5055348;28;20222;-57
2022/11/30 02:18:33;;;;;;;38.65;20.27;;;5.20;99.90;;;;;;5055285;28;20200;-57
2022/11/30 02:21:06;;;;;;;35.75;18.65;;;5.20;99.90;;;;;;5055459;28;20186;-57
2022/11/30 02:24:00;;;;;;;43.42;21.27;;;5.20;99.90;;;;;;5054969;28;20233;-58
2022/11/30 02:26:48;;;;;;;53.97;20.73;;;5.20;99.90;;;;;;5055260;28;20182;-58
2022/11/30 02:29:21;;;;;;;38.58;19.75;;;5.20;99.90;;;;;;5055075;28;20210;-58
2022/11/30 02:31:57;;;;;;;37.47;18.27;;;5.20;99.90;;;;;;5055482;28;20186;-58
2022/11/30 02:34:29;;;;;;;45.85;20.48;;;5.20;99.90;;;;;;5055460;28;20229;-58
2022/11/30 02:36:58;;;;;;;34.42;18.35;;;5.20;99.90;;;;;;5055558;28;20581;-57
2022/11/30 02:39:25;;;;;;;35.72;19.40;;;5.20;99.90;;;;;;5055985;28;20229;-56
2022/11/30 02:41:52;;;;;;;37.78;18.23;;;5.20;99.90;;;;;;5055317;28;20576;-58
2022/11/30 02:44:22;;;;;;;35.08;18.90;;;5.20;99.90;;;;;;5055054;28;20228;-57
2022/11/30 02:47:04;;;;;;;35.55;19.08;;;5.20;99.90;;;;;;5054840;28;20202;-58
2022/11/30 02:49:37;;;;;;;33.38;17.83;;;5.20;99.90;;;;;;5053782;28;20198;-58
2022/11/30 02:52:06;;;;;;;45.33;21.58;;;5.20;99.90;;;;;;5054912;28;20193;-57
2022/11/30 02:54:34;;;;;;;32.15;18.55;;;5.20;99.90;;;;;;5054339;28;20689;-57
2022/11/30 02:57:00;;;;;;;42.92;20.20;;;5.20;99.90;;;;;;5054555;28;20670;-58
2022/11/30 02:59:29;;;;;;;36.22;19.05;;;5.20;99.90;;;;;;5055304;28;20557;-57
2022/11/30 03:01:56;;;;;;;36.00;17.35;;;5.20;99.90;;;;;;5055391;28;20209;-58
2022/11/30 03:04:23;;;;;;;35.88;18.00;;;5.10;99.90;;;;;;5054289;28;20217;-57
2022/11/30 03:06:49;;;;;;;32.72;19.92;;;5.10;99.90;;;;;;5054084;28;20570;-58
2022/11/30 03:09:16;;;;;;;31.02;18.02;;;5.10;99.90;;;;;;5054339;28;20227;-57
2022/11/30 03:11:43;;;;;;;35.00;18.13;;;5.20;99.90;;;;;;5054195;28;20197;-57
2022/11/30 03:14:10;;;;;;;30.75;17.90;;;5.20;99.90;;;;;;5054107;28;20234;-57
2022/11/30 03:16:38;;;;;;;30.88;17.70;;;5.20;99.90;;;;;;5054117;28;20566;-57
2022/11/30 03:19:05;;;;;;;32.80;19.00;;;5.20;99.90;;;;;;5053747;28;20205;-58
2022/11/30 03:21:32;;;;;;;29.15;17.42;;;5.10;99.90;;;;;;5054084;28;20202;-57
2022/11/30 03:23:59;;;;;;;31.52;17.30;;;5.10;99.90;;;;;;5053827;28;20585;-57
2022/11/30 03:26:25;;;;;;;27.02;17.35;;;5.10;99.90;;;;;;5053667;28;20701;-58
2022/11/30 03:28:52;;;;;;;33.63;18.38;;;5.10;99.90;;;;;;5053982;28;20202;-58
2022/11/30 03:31:19;;;;;;;32.83;17.48;;;5.10;99.90;;;;;;5053945;28;20201;-57
2022/11/30 03:33:47;;;;;;;32.13;18.77;;;5.10;99.90;;;;;;5053785;28;20229;-58
2022/11/30 03:36:14;;;;;;;34.97;20.60;;;5.10;99.90;;;;;;5053770;28;20230;-57
2022/11/30 03:38:41;;;;;;;29.45;17.25;;;5.10;99.90;;;;;;5054401;28;20201;-56
2022/11/30 03:41:10;;;;;;;36.40;21.02;;;5.10;99.90;;;;;;5054140;28;20212;-58
2022/11/30 03:43:37;;;;;;;35.45;17.75;;;5.10;99.90;;;;;;5054568;28;20573;-58
2022/11/30 03:46:04;;;;;;;36.80;18.08;;;5.10;99.90;;;;;;5053439;28;20697;-57
2022/11/30 03:48:31;;;;;;;41.05;19.92;;;5.10;99.90;;;;;;5053820;28;20212;-58
2022/11/30 03:50:59;;;;;;;30.20;16.92;;;5.10;99.90;;;;;;5053447;28;20251;-57
2022/11/30 03:53:26;;;;;;;30.17;17.25;;;5.10;99.90;;;;;;5053529;28;20226;-57
2022/11/30 03:55:54;;;;;;;31.95;17.83;;;5.10;99.90;;;;;;5053182;28;20217;-58
2022/11/30 03:58:22;;;;;;;30.92;18.40;;;5.10;99.90;;;;;;5053568;28;20202;-58
2022/11/30 04:00:48;;;;;;;36.03;19.55;;;5.10;99.90;;;;;;5053169;28;20205;-59
2022/11/30 04:03:15;;;;;;;28.48;17.00;;;5.10;99.90;;;;;;5053644;28;20259;-57
2022/11/30 04:05:42;;;;;;;28.95;17.48;;;5.10;99.90;;;;;;5053430;28;20198;-57
2022/11/30 04:10:39;;;;;;;37.40;19.02;;;5.10;99.90;;;;;;5096304;27;20596;-58
2022/11/30 04:13:05;;;;;;;35.33;19.83;;;5.10;99.90;;;;;;5093578;28;20223;-59
2022/11/30 04:15:32;;;;;;;36.15;19.48;;;5.20;99.90;;;;;;5096125;28;20203;-59
2022/11/30 04:17:59;;;;;;;31.45;19.85;;;5.20;99.90;;;;;;5096357;28;20208;-58
2022/11/30 04:23:00;;;;;;;35.05;19.08;;;5.20;99.90;;;;;;5090925;22;20260;-59
2022/11/30 04:25:27;;;;;;;32.63;18.25;;;5.20;99.90;;;;;;5069955;28;20688;-58
2022/11/30 04:27:55;;;;;;;30.67;17.30;;;5.20;99.90;;;;;;5070358;28;20201;-60
2022/11/30 04:30:23;;;;;;;33.03;17.08;;;5.20;99.90;;;;;;5070235;28;20235;-59
2022/11/30 04:32:50;;;;;;;36.22;17.70;;;5.20;99.90;;;;;;5070139;28;20232;-59
2022/11/30 04:35:17;;;;;;;33.40;18.10;;;5.20;99.90;;;;;;5070308;28;20201;-59
2022/11/30 04:37:44;;;;;;;32.65;18.08;;;5.20;99.90;;;;;;5070654;28;20672;-58
2022/11/30 04:40:11;;;;;;;33.58;19.52;;;5.20;99.90;;;;;;5070689;28;20518;-58
2022/11/30 04:42:38;;;;;;;33.92;16.98;;;5.20;99.90;;;;;;5071557;28;20734;-58
2022/11/30 04:45:07;;;;;;;34.30;18.35;;;5.20;99.90;;;;;;5070283;28;20200;-58
2022/11/30 04:47:34;;;;;;;30.35;16.88;;;5.20;99.90;;;;;;5070463;28;20211;-59
2022/11/30 04:50:01;;;;;;;35.88;18.20;;;5.20;99.90;;;;;;5070343;28;20217;-60
2022/11/30 04:52:28;;;;;;;38.38;18.52;;;5.20;99.90;;;;;;5070103;28;20636;-59
2022/11/30 04:54:55;;;;;;;37.60;18.90;;;5.20;99.90;;;;;;5070038;28;20205;-59
2022/11/30 04:57:23;;;;;;;41.05;19.77;;;5.20;99.90;;;;;;5070031;28;20275;-60
2022/11/30 04:59:49;;;;;;;39.78;19.10;;;5.20;99.90;;;;;;5070315;28;20201;-60
2022/11/30 05:02:17;;;;;;;35.58;18.45;;;5.20;99.90;;;;;;5070469;28;20736;-59
2022/11/30 05:04:44;;;;;;;44.55;20.80;;;5.10;99.90;;;;;;5069995;28;20205;-59
2022/11/30 05:07:11;;;;;;;34.95;18.60;;;5.10;99.90;;;;;;5072663;28;20209;-59
2022/11/30 05:09:37;;;;;;;43.78;19.67;;;5.10;99.90;;;;;;5049831;28;20602;-60
2022/11/30 05:12:04;;;;;;;38.65;21.90;;;5.10;99.90;;;;;;5057269;28;20217;-60
2022/11/30 05:14:31;;;;;;;37.97;19.67;;;5.10;99.90;;;;;;5069777;28;20573;-60
2022/11/30 05:16:58;;;;;;;38.35;19.08;;;5.10;99.90;;;;;;5069705;28;20209;-60
2022/11/30 05:19:26;;;;;;;45.95;20.35;;;5.10;99.90;;;;;;5069263;28;20696;-59
2022/11/30 05:21:53;;;;;;;44.78;20.02;;;5.10;99.90;;;;;;5056796;28;20233;-59
2022/11/30 05:24:19;;;;;;;42.63;20.65;;;5.10;99.90;;;;;;5062304;28;20284;-59
2022/11/30 05:26:46;;;;;;;43.08;19.63;;;5.10;99.90;;;;;;5043933;28;20206;-59
2022/11/30 05:29:13;;;;;;;38.20;19.73;;;5.10;99.90;;;;;;5036119;28;20561;-59
2022/11/30 05:31:40;;;;;;;38.05;21.38;;;5.10;99.90;;;;;;5055568;28;20228;-59
2022/11/30 05:34:07;;;;;;;40.20;21.23;;;5.10;99.90;;;;;;5056114;28;20621;-59
2022/11/30 05:36:35;;;;;;;39.08;23.50;;;5.10;99.90;;;;;;5055966;28;20206;-60
2022/11/30 05:39:02;;;;;;;43.30;21.85;;;5.10;99.90;;;;;;5055963;28;20198;-60
2022/11/30 05:41:28;;;;;;;40.20;20.25;;;5.10;99.90;;;;;;5055511;28;20225;-60
2022/11/30 05:43:55;;;;;;;44.70;21.85;;;5.10;99.90;;;;;;5055986;28;20205;-60
2022/11/30 05:46:22;;;;;;;49.47;21.45;;;5.10;99.90;;;;;;5055753;28;20198;-60
2022/11/30 05:48:49;;;;;;;43.33;21.60;;;5.10;99.90;;;;;;5055555;28;20205;-58
2022/11/30 05:51:18;;;;;;;42.20;23.50;;;5.10;99.90;;;;;;5055666;28;20240;-58
2022/11/30 05:53:46;;;;;;;43.05;23.25;;;5.10;99.90;;;;;;5055938;28;20202;-59
2022/11/30 05:56:15;;;;;;;42.75;21.02;;;5.10;99.90;;;;;;5055795;28;20198;-60
2022/11/30 05:58:42;;;;;;;40.20;19.83;;;5.10;99.90;;;;;;5058238;28;20198;-59
2022/11/30 06:01:17;;;;;;;41.35;23.95;;;5.10;99.90;;;;;;5055557;28;20226;-60
2022/11/30 06:03:44;;;;;;;45.30;22.10;;;5.10;99.90;;;;;;5055675;28;20189;-58
2022/11/30 06:06:11;;;;;;;47.55;22.73;;;5.10;99.90;;;;;;5055521;28;20210;-58
2022/11/30 06:08:37;;;;;;;43.70;20.88;;;5.10;99.90;;;;;;5055174;28;20206;-59
2022/11/30 06:11:06;;;;;;;39.63;21.08;;;5.10;99.90;;;;;;5055305;28;20233;-57
2022/11/30 06:13:33;;;;;;;38.38;21.50;;;5.10;99.90;;;;;;5055537;28;20570;-59
2022/11/30 06:16:00;;;;;;;40.83;21.42;;;5.10;99.90;;;;;;5055434;28;20209;-60
2022/11/30 06:18:27;;;;;;;40.00;21.65;;;5.10;99.90;;;;;;5054659;28;20658;-60
2022/11/30 06:20:53;;;;;;;43.20;22.38;;;5.10;99.90;;;;;;5055282;28;20288;-58
2022/11/30 06:23:20;;;;;;;45.28;20.70;;;5.10;99.90;;;;;;5055607;28;20593;-59
2022/11/30 06:25:47;;;;;;;38.70;20.42;;;5.10;99.90;;;;;;5055692;28;20204;-60
2022/11/30 06:28:15;;;;;;;41.65;21.65;;;5.10;99.90;;;;;;5055810;28;20205;-59
2022/11/30 06:30:42;;;;;;;40.13;20.58;;;5.10;99.90;;;;;;5058400;28;20217;-59
2022/11/30 06:33:08;;;;;;;43.70;20.90;;;5.10;99.90;;;;;;5053258;28;20209;-59
2022/11/30 06:35:35;;;;;;;40.60;21.58;;;5.10;99.90;;;;;;5053757;28;20683;-60
2022/11/30 06:38:02;;;;;;;44.10;20.27;;;5.10;99.90;;;;;;5054413;28;20205;-59
2022/11/30 06:40:29;;;;;;;38.45;19.73;;;5.10;99.90;;;;;;5057413;28;20213;-60
2022/11/30 06:42:56;;;;;;;45.03;21.70;;;5.20;99.90;;;;;;5058747;28;20705;-59
2022/11/30 06:45:24;;;;;;;44.10;22.17;;;5.20;99.90;;;;;;5054821;28;20666;-59
2022/11/30 06:47:54;;;;;;;42.13;21.88;;;5.20;99.90;;;;;;5054419;28;20318;-60
2022/11/30 06:50:21;;;;;;;41.15;20.73;;;5.10;99.90;;;;;;5059144;28;20220;-58
2022/11/30 06:52:48;;;;;;;44.22;23.48;;;5.10;99.90;;;;;;5046461;28;20244;-60
2022/11/30 06:55:14;;;;;;;48.22;21.63;;;5.20;99.90;;;;;;5035427;28;20203;-59
2022/11/30 06:57:41;;;;;;;41.08;21.10;;;5.10;99.90;;;;;;5034977;28;20217;-58
2022/11/30 07:00:11;;;;;;;43.92;20.48;;;5.10;99.90;;;;;;5049218;28;20208;-59
2022/11/30 07:02:39;;;;;;;42.15;19.67;;;5.10;99.90;;;;;;5054926;28;20245;-60
2022/11/30 07:05:06;;;;;;;40.97;21.98;;;5.20;99.90;;;;;;5055068;28;20665;-59
2022/11/30 07:07:33;;;;;;;42.42;22.60;;;5.20;99.90;;;;;;5055975;28;20201;-59
2022/11/30 07:10:00;;;;;;;47.47;21.80;;;5.20;99.90;;;;;;5054527;28;20220;-59
2022/11/30 07:12:27;;;;;;;40.35;20.33;;;5.20;99.90;;;;;;5054729;28;20221;-58
2022/11/30 07:14:55;;;;;;;46.28;22.35;;;5.20;99.90;;;;;;5054260;28;20204;-59
2022/11/30 07:17:22;;;;;;;42.63;20.48;;;5.20;99.90;;;;;;5053844;28;20255;-58
2022/11/30 07:19:50;;;;;;;41.75;21.33;;;5.10;99.90;;;;;;5055187;28;20197;-59
2022/11/30 07:22:17;;;;;;;35.40;20.75;;;5.10;99.90;;;;;;5054736;28;20238;-58
2022/11/30 07:27:28;;;;;;;40.88;21.17;;;5.10;99.90;;;;;;5054181;28;20185;-58
2022/11/30 07:29:54;;;;;;;39.08;19.30;;;5.10;99.90;;;;;;5054202;28;20252;-59
2022/11/30 07:32:21;;;;;;;43.75;22.30;;;5.10;99.90;;;;;;5053732;28;20232;-58
2022/11/30 07:34:49;;;;;;;50.30;24.17;;;5.10;99.90;;;;;;5054199;28;20285;-59
2022/11/30 07:37:16;;;;;;;40.50;21.85;;;5.10;99.90;;;;;;5054455;28;20201;-60
2022/11/30 07:39:43;;;;;;;34.75;20.02;;;5.10;99.90;;;;;;5054651;28;20203;-59
2022/11/30 07:42:09;;;;;;;45.30;21.55;;;5.10;99.90;;;;;;5053761;28;20304;-59
2022/11/30 07:44:36;;;;;;;48.75;22.38;;;5.20;99.90;;;;;;5053610;28;20206;-59
2022/11/30 07:47:03;;;;;;;41.95;21.98;;;5.20;99.90;;;;;;5054273;28;20205;-59
2022/11/30 07:49:30;;;;;;;52.13;24.25;;;5.20;99.90;;;;;;5054711;28;20232;-60
2022/11/30 07:51:58;;;;;;;47.58;21.02;;;5.20;99.90;;;;;;5054774;28;20221;-59
2022/11/30 07:54:24;;;;;;;45.08;24.45;;;5.20;99.90;;;;;;5056038;28;20607;-59
2022/11/30 07:56:51;;;;;;;51.92;23.20;;;5.30;99.90;;;;;;5054997;28;20214;-59
2022/11/30 07:59:18;;;;;;;46.85;22.85;;;5.30;99.90;;;;;;5054536;28;20224;-58
2022/11/30 08:01:44;;;;;;;42.28;23.75;;;5.30;99.90;;;;;;5056474;28;20251;-58
2022/11/30 08:04:12;;;;;;;47.00;22.23;;;5.30;99.90;;;;;;5049715;28;20216;-59
2022/11/30 08:06:39;;;;;;;41.33;21.55;;;5.30;99.90;;;;;;5056974;28;20209;-59
2022/11/30 08:09:08;;;;;;;50.10;24.65;;;5.30;99.90;;;;;;5051519;28;20213;-59
2022/11/30 08:11:35;;;;;;;49.20;24.13;;;5.40;99.90;;;;;;5065067;28;20236;-60
2022/11/30 08:14:03;;;;;;;47.05;24.38;;;5.40;99.90;;;;;;5055421;28;20670;-59
2022/11/30 08:16:34;;;;;;;47.97;21.88;;;5.40;99.90;;;;;;5055375;28;20201;-59
2022/11/30 08:19:00;;;;;;;49.97;22.98;;;5.30;99.90;;;;;;5054494;28;20209;-60
2022/11/30 08:21:27;;;;;;;50.30;22.67;;;5.30;99.90;;;;;;5053087;28;20225;-60
2022/11/30 08:23:56;;;;;;;50.45;23.73;;;5.40;99.90;;;;;;5054845;28;20212;-61
2022/11/30 08:26:27;;;;;;;53.65;22.98;;;5.40;99.90;;;;;;5052097;28;20206;-59
2022/11/30 08:28:54;;;;;;;47.67;23.88;;;5.30;99.90;;;;;;5044593;28;20205;-59
2022/11/30 08:31:22;;;;;;;49.58;23.50;;;5.30;99.90;;;;;;5054498;28;20709;-62
2022/11/30 08:33:50;;;;;;;51.88;23.95;;;5.40;99.90;;;;;;5044079;28;20202;-59
2022/11/30 08:36:20;;;;;;;57.20;24.90;;;5.40;99.90;;;;;;5056669;28;20259;-60
2022/11/30 08:38:47;;;;;;;54.20;25.38;;;5.40;99.90;;;;;;5060592;28;20198;-59
2022/11/30 08:41:16;;;;;;;47.10;21.95;;;5.40;99.90;;;;;;5061203;28;20212;-60
2022/11/30 08:43:44;;;;;;;47.65;24.25;;;5.40;99.90;;;;;;5064121;28;20201;-59
2022/11/30 08:46:13;;;;;;;55.10;24.73;;;5.40;99.90;;;;;;5062616;28;20202;-59
2022/11/30 08:48:40;;;;;;;46.75;22.77;;;5.50;99.90;;;;;;5061251;28;20206;-60
2022/11/30 08:51:10;;;;;;;50.85;23.25;;;5.50;99.90;;;;;;5063761;28;20229;-59
2022/11/30 08:53:37;;;;;;;53.05;24.48;;;5.50;99.90;;;;;;5060744;28;20190;-60
2022/11/30 08:56:07;;;;;;;52.10;23.15;;;5.50;99.90;;;;;;5060144;28;20206;-59
2022/11/30 08:58:35;;;;;;;55.50;25.67;;;5.50;99.90;;;;;;5062811;28;20213;-60
2022/11/30 09:01:08;;;;;;;57.40;25.02;;;5.50;99.90;;;;;;5062026;28;20213;-60
2022/11/30 09:03:34;;;;;;;54.47;24.17;;;5.50;99.90;;;;;;5066198;28;20186;-60
2022/11/30 09:06:05;;;;;;;58.28;24.48;;;5.50;99.90;;;;;;5064434;28;20198;-59
2022/11/30 09:08:33;;;;;;;57.00;24.55;;;5.50;99.90;;;;;;5063585;28;20235;-59
2022/11/30 09:11:06;;;;;;;53.83;23.02;;;5.50;99.90;;;;;;5062316;28;20594;-59
2022/11/30 09:13:33;;;;;;;61.88;24.33;;;5.50;99.90;;;;;;5061374;28;20197;-61
2022/11/30 09:16:00;;;;;;;54.42;25.02;;;5.60;99.90;;;;;;5060463;28;20205;-59
2022/11/30 09:18:28;;;;;;;51.70;26.60;;;5.70;99.90;;;;;;5056836;28;20205;-59
2022/11/30 09:20:59;;;;;;;50.47;24.33;;;5.70;99.90;;;;;;5056524;28;20209;-60
2022/11/30 09:23:26;;;;;;;52.30;24.13;;;5.70;99.90;;;;;;5057323;28;20189;-59
2022/11/30 09:25:56;;;;;;;55.75;25.70;;;5.70;99.90;;;;;;5056482;28;20201;-60
2022/11/30 09:28:22;;;;;;;57.63;25.63;;;5.70;99.90;;;;;;5058395;28;20576;-60
2022/11/30 09:30:49;;;;;;;50.92;25.15;;;5.80;99.90;;;;;;5058196;28;20297;-59
2022/11/30 09:33:16;;;;;;;55.55;26.33;;;5.80;99.90;;;;;;5056381;28;20565;-59
2022/11/30 09:35:44;;;;;;;51.00;26.88;;;5.80;99.90;;;;;;5056475;28;20209;-59
2022/11/30 09:38:11;;;;;;;55.20;24.88;;;5.80;99.90;;;;;;5056865;28;20201;-58
2022/11/30 09:40:40;;;;;;;52.65;25.83;;;5.80;99.90;;;;;;5056290;28;20202;-60
2022/11/30 09:43:15;;;;;;;55.70;26.33;;;5.80;99.90;;;;;;5056347;28;20571;-60
2022/11/30 09:45:46;;;;;;;58.78;25.33;;;5.90;99.90;;;;;;5056583;28;20195;-60
2022/11/30 09:48:25;;;;;;;50.97;25.88;;;5.90;99.90;;;;;;5056126;28;20189;-60
2022/11/30 09:50:54;;;;;;;54.17;26.48;;;5.90;99.90;;;;;;5055763;28;20214;-60
2022/11/30 09:53:26;;;;;;;56.47;25.52;;;5.90;99.90;;;;;;5056967;28;20210;-60
2022/11/30 09:55:54;;;;;;;56.80;25.98;;;6.00;99.90;;;;;;5055943;28;20193;-59
2022/11/30 09:58:33;;;;;;;52.05;24.02;;;6.00;99.90;;;;;;5055511;28;20208;-59
2022/11/30 10:01:01;;;;;;;61.40;26.38;;;6.00;99.90;;;;;;5055451;28;20233;-60
2022/11/30 10:03:27;;;;;;;54.13;24.65;;;6.00;99.90;;;;;;5055309;28;20259;-60
2022/11/30 10:06:04;;;;;;;54.67;25.23;;;6.00;99.90;;;;;;5055528;28;20198;-60
2022/11/30 10:08:45;;;;;;;49.20;25.40;;;6.00;99.90;;;;;;5055606;28;20186;-59
2022/11/30 10:11:31;;;;;;;58.85;25.95;;;5.90;99.90;;;;;;5055746;28;20317;-59
2022/11/30 10:14:17;;;;;;;59.92;25.83;;;5.90;99.90;;;;;;5055765;28;20186;-59
2022/11/30 10:16:51;;;;;;;53.80;25.00;;;6.00;99.90;;;;;;5055652;28;20193;-60
2022/11/30 10:19:35;;;;;;;51.75;24.17;;;6.00;99.90;;;;;;5055471;28;20209;-58
2022/11/30 10:22:16;;;;;;;57.72;26.05;;;6.00;99.90;;;;;;5087139;22;20221;-59
2022/11/30 10:24:57;;;;;;;47.30;23.58;;;6.00;99.90;;;;;;5077478;28;20193;-60
2022/11/30 10:27:36;;;;;;;55.22;24.02;;;6.10;99.90;;;;;;5076078;28;20203;-60
2022/11/30 10:30:03;;;;;;;49.53;23.60;;;6.10;99.90;;;;;;5076363;28;20185;-59
2022/11/30 10:32:37;;;;;;;60.63;26.40;;;6.10;99.90;;;;;;5075254;28;20221;-62
2022/11/30 10:35:17;;;;;;;47.10;23.30;;;6.10;99.90;;;;;;5074875;28;20554;-60
2022/11/30 10:37:46;;;;;;;46.55;23.95;;;6.10;99.90;;;;;;5074751;28;20181;-60
2022/11/30 10:40:16;;;;;;;56.95;26.08;;;6.10;99.90;;;;;;5074840;28;20641;-60
2022/11/30 10:42:46;;;;;;;65.50;26.48;;;6.10;99.90;;;;;;5074829;28;20296;-60
2022/11/30 10:45:15;;;;;;;52.40;23.10;;;6.10;99.90;;;;;;5074895;28;20189;-60
2022/11/30 10:47:46;;;;;;;55.13;26.00;;;6.00;99.90;;;;;;5073917;28;20197;-59
2022/11/30 10:50:15;;;;;;;46.92;23.08;;;6.10;99.90;;;;;;5073930;28;20545;-60
2022/11/30 10:52:47;;;;;;;55.47;26.05;;;6.00;99.90;;;;;;5073946;28;20225;-59
2022/11/30 10:55:18;;;;;;;50.60;24.83;;;6.10;99.90;;;;;;5074333;28;20189;-60
2022/11/30 10:57:46;;;;;;;54.17;27.23;;;6.10;99.90;;;;;;5074085;28;20272;-60
2022/11/30 11:00:17;;;;;;;49.05;25.58;;;6.10;99.90;;;;;;5073951;28;20201;-60
2022/11/30 11:02:45;;;;;;;64.80;27.95;;;6.10;99.90;;;;;;5074134;28;20267;-60
2022/11/30 11:05:19;;;;;;;70.95;29.10;;;6.10;99.90;;;;;;5073462;28;20228;-59
2022/11/30 11:07:51;;;;;;;67.32;28.00;;;6.10;99.90;;;;;;5074028;28;20651;-60
2022/11/30 11:10:20;;;;;;;55.90;26.98;;;6.20;99.90;;;;;;5073991;28;20193;-58
2022/11/30 11:12:49;;;;;;;66.95;29.17;;;6.10;99.90;;;;;;5074045;28;20232;-60
2022/11/30 11:15:19;;;;;;;58.30;27.65;;;6.10;99.90;;;;;;5073915;28;20205;-60
2022/11/30 11:17:47;;;;;;;67.47;27.55;;;6.10;99.90;;;;;;5073973;28;20197;-60
2022/11/30 11:20:33;;;;;;;62.35;27.15;;;6.10;99.90;;;;;;5073438;28;20208;-59
2022/11/30 11:23:01;;;;;;;54.30;27.45;;;6.10;99.90;;;;;;5073179;28;20233;-60
2022/11/30 11:25:33;;;;;;;54.42;25.83;;;6.10;99.90;;;;;;5073758;28;20197;-60
2022/11/30 11:28:07;;;;;;;58.72;26.60;;;6.10;99.90;;;;;;5073480;28;20641;-59
2022/11/30 11:30:35;;;;;;;59.78;28.30;;;6.10;99.90;;;;;;5074353;28;20573;-59
2022/11/30 11:33:21;;;;;;;63.58;27.33;;;6.10;99.90;;;;;;5073337;28;20228;-59
2022/11/30 11:35:50;;;;;;;60.70;27.20;;;6.10;99.90;;;;;;5073339;28;20196;-59
2022/11/30 11:38:24;;;;;;;58.65;29.75;;;6.10;99.90;;;;;;5073680;28;20223;-59
2022/11/30 11:40:54;;;;;;;61.05;27.20;;;6.10;99.90;;;;;;5073635;28;20220;-59
2022/11/30 11:43:21;;;;;;;56.47;27.58;;;6.10;99.90;;;;;;5073693;28;20248;-59
2022/11/30 11:45:52;;;;;;;60.85;28.00;;;6.00;99.90;;;;;;5073475;28;20205;-59
2022/11/30 11:48:29;;;;;;;63.40;28.63;;;6.10;99.90;;;;;;5073893;28;20213;-59
2022/11/30 11:51:01;;;;;;;57.83;27.45;;;6.10;99.90;;;;;;5073329;28;20208;-59
2022/11/30 11:53:44;;;;;;;67.32;28.45;;;6.10;99.90;;;;;;5072701;28;20240;-59
2022/11/30 11:56:17;;;;;;;56.88;26.45;;;6.10;99.90;;;;;;5073086;28;20185;-58
2022/11/30 11:58:49;;;;;;;53.85;26.15;;;6.10;99.90;;;;;;5073186;28;20251;-59
2022/11/30 12:01:25;;;;;;;59.42;28.33;;;6.20;99.90;;;;;;5072736;28;20178;-59
2022/11/30 12:04:13;;;;;;;61.50;26.40;;;6.20;99.90;;;;;;5073153;28;20219;-59
2022/11/30 12:06:42;;;;;;;62.08;28.55;;;6.20;99.90;;;;;;5072510;28;20189;-59
2022/11/30 12:09:15;;;;;;;69.63;29.05;;;6.20;99.90;;;;;;5072548;28;20322;-59
2022/11/30 12:11:45;;;;;;;61.90;27.35;;;6.20;99.90;;;;;;5072660;28;20228;-57
2022/11/30 12:14:13;;;;;;;56.70;25.15;;;6.20;99.90;;;;;;5072958;28;20197;-59
2022/11/30 12:17:01;;;;;;;53.00;25.33;;;6.20;99.90;;;;;;5072589;28;20208;-59
2022/11/30 12:19:36;;;;;;;53.47;25.38;;;6.20;99.90;;;;;;5072596;28;20650;-59
2022/11/30 12:22:20;;;;;;;56.55;27.08;;;6.30;99.90;;;;;;5072719;28;20221;-58
2022/11/30 12:25:15;;;;;;;50.53;25.13;;;6.30;99.90;;;;;;5073140;28;20190;-60
2022/11/30 12:27:47;;;;;;;62.28;26.42;;;6.30;99.90;;;;;;5072797;28;20189;-60
2022/11/30 12:30:21;;;;;;;64.28;28.90;;;6.40;99.90;;;;;;5073119;28;20196;-59
2022/11/30 12:33:15;;;;;;;61.72;26.20;;;6.40;99.90;;;;;;5076544;28;20228;-61
2022/11/30 12:35:55;;;;;;;65.28;29.02;;;6.30;99.90;;;;;;5073309;28;20207;-60
2022/11/30 12:38:31;;;;;;;55.38;26.80;;;6.30;99.90;;;;;;5077272;28;20265;-60
2022/11/30 12:41:13;;;;;;;53.20;28.15;;;6.30;99.90;;;;;;5077100;28;20185;-59
2022/11/30 12:43:50;;;;;;;54.45;28.20;;;6.20;99.90;;;;;;5076431;28;20185;-60
2022/11/30 12:46:22;;;;;;;61.05;29.17;;;6.20;99.90;;;;;;5076372;28;20189;-59
2022/11/30 12:49:08;;;;;;;64.32;28.83;;;6.20;99.90;;;;;;5076135;28;20194;-58
2022/11/30 12:51:41;;;;;;;54.42;26.13;;;6.20;99.90;;;;;;5075660;28;20594;-60
2022/11/30 12:54:13;;;;;;;59.30;28.85;;;6.20;99.90;;;;;;5076181;28;20196;-59
2022/11/30 12:56:45;;;;;;;61.55;27.33;;;6.10;99.90;;;;;;5076375;28;20194;-60